createdAt,value
2018-03-31T00:00:08.228Z,84.40
2018-03-31T00:02:35.297Z,84.80
2018-03-31T00:05:02.350Z,84.60
2018-03-31T00:07:29.404Z,84.90
2018-03-31T00:09:56.449Z,84.50
2018-03-31T00:18:11.099Z,84.10
2018-03-31T00:20:38.148Z,83.80
2018-03-31T00:23:05.281Z,83.50
2018-03-31T00:25:32.338Z,83.30
2018-03-31T00:27:59.384Z,83.20
2018-03-31T00:30:26.435Z,83.50
2018-03-31T00:32:53.500Z,83.40
2018-03-31T00:35:20.550Z,83.60
2018-03-31T00:37:47.603Z,83.50
2018-03-31T00:40:14.636Z,83.50
2018-03-31T00:42:41.686Z,83.00
2018-03-31T00:45:08.727Z,83.00
2018-03-31T00:47:35.763Z,82.80
2018-03-31T00:50:02.797Z,82.60
2018-03-31T00:52:29.832Z,82.70
2018-03-31T00:54:56.948Z,82.70
2018-03-31T00:57:24.779Z,81.80
2018-03-31T00:59:51.821Z,81.80
2018-03-31T01:02:18.855Z,81.60
2018-03-31T01:04:45.919Z,81.60
2018-03-31T01:07:13.849Z,81.40
2018-03-31T01:09:40.897Z,81.30
2018-03-31T01:12:08.296Z,81.00
2018-03-31T02:17:58.281Z,79.10
2018-03-31T02:23:19.443Z,78.80
2018-03-31T03:14:21.516Z,78.50
2018-03-31T03:16:48.604Z,78.60
2018-03-31T03:25:03.770Z,78.30
2018-03-31T03:27:30.809Z,78.80
2018-03-31T03:29:57.846Z,78.60
2018-03-31T03:32:24.901Z,78.60
2018-03-31T03:34:51.983Z,78.70
2018-03-31T03:37:19.630Z,78.70
2018-03-31T03:39:46.660Z,79.10
2018-03-31T03:42:14.485Z,79.20
2018-03-31T03:44:41.563Z,79.20
2018-03-31T03:47:08.651Z,79.20
2018-03-31T03:49:35.692Z,79.10
2018-03-31T03:52:02.741Z,79.10
2018-03-31T03:54:30.050Z,80.00
2018-03-31T03:56:57.083Z,79.50
2018-03-31T03:59:24.155Z,79.70
2018-03-31T04:01:51.199Z,79.70
2018-03-31T04:04:18.246Z,79.50
2018-03-31T04:06:45.284Z,79.60
2018-03-31T04:09:12.328Z,79.60
2018-03-31T04:11:39.754Z,79.60
2018-03-31T04:17:09.734Z,80.00
2018-03-31T06:20:37.836Z,77.80
2018-03-31T07:15:31.867Z,74.50
2018-03-31T07:17:58.877Z,74.50
2018-03-31T07:20:25.931Z,74.50
2018-03-31T07:22:53.406Z,74.60
2018-03-31T07:25:20.468Z,74.40
2018-03-31T07:27:48.164Z,74.30
2018-03-31T07:30:15.218Z,73.80
2018-03-31T07:32:42.267Z,73.80
2018-03-31T07:35:09.351Z,73.70
2018-03-31T07:37:36.392Z,73.60
2018-03-31T07:40:03.446Z,73.70
2018-03-31T07:42:30.539Z,73.90
2018-03-31T07:44:57.585Z,73.70
2018-03-31T07:47:24.639Z,73.50
2018-03-31T07:49:51.710Z,73.40
2018-03-31T07:52:19.841Z,73.30
2018-03-31T07:54:46.898Z,73.30
2018-03-31T07:57:13.973Z,73.20
2018-03-31T07:59:41.044Z,72.80
2018-03-31T08:02:08.200Z,72.80
2018-03-31T08:04:35.281Z,73.00
2018-03-31T08:07:02.404Z,73.40
2018-03-31T08:09:29.530Z,73.20
2018-03-31T08:11:57.348Z,72.90
2018-03-31T09:23:51.132Z,73.10
2018-03-31T09:26:18.182Z,73.30
2018-03-31T09:28:45.331Z,72.70
2018-03-31T09:31:12.397Z,72.50
2018-03-31T09:33:40.239Z,72.60
2018-03-31T09:36:07.298Z,72.60
2018-03-31T09:38:35.107Z,71.60
2018-03-31T09:41:02.168Z,71.50
2018-03-31T09:43:30.009Z,72.00
2018-03-31T09:45:57.070Z,72.00
2018-03-31T09:48:24.345Z,70.80
2018-03-31T09:50:51.412Z,71.10
2018-03-31T09:53:18.472Z,70.50
2018-03-31T09:55:45.524Z,70.70
2018-03-31T09:58:13.372Z,70.20
2018-03-31T10:00:40.439Z,70.10
2018-03-31T10:03:07.491Z,70.20
2018-03-31T10:05:35.326Z,70.50
2018-03-31T10:08:02.402Z,70.30
2018-03-31T10:10:29.473Z,70.80
2018-03-31T11:34:53.269Z,64.90
2018-03-31T11:37:20.313Z,64.80
2018-03-31T11:39:47.370Z,64.90
2018-03-31T11:42:14.409Z,64.30
2018-03-31T11:44:41.460Z,64.20
2018-03-31T11:47:08.550Z,63.40
2018-03-31T11:49:35.600Z,64.00
2018-03-31T11:52:03.422Z,64.10
2018-03-31T11:54:30.674Z,64.10
2018-03-31T11:56:57.846Z,63.70
2018-03-31T11:59:24.912Z,63.60
2018-03-31T12:01:52.727Z,63.40
2018-03-31T12:04:19.786Z,63.30
2018-03-31T12:06:46.840Z,63.70
2018-03-31T12:09:13.945Z,64.50
2018-03-31T12:11:41.258Z,64.60
2018-03-31T12:19:58.361Z,64.00
2018-03-31T12:22:25.439Z,64.20
2018-03-31T13:13:17.125Z,69.60
2018-03-31T13:15:44.244Z,70.70
2018-03-31T13:18:11.286Z,70.40
2018-03-31T13:20:38.355Z,70.50
2018-03-31T13:23:05.404Z,70.50
2018-03-31T13:25:32.793Z,70.50
2018-03-31T13:27:59.844Z,71.00
2018-03-31T13:30:26.951Z,71.70
2018-03-31T13:32:54.778Z,72.80
2018-03-31T13:35:21.868Z,72.10
2018-03-31T13:37:48.918Z,72.50
2018-03-31T13:40:15.987Z,72.80
2018-03-31T13:42:43.086Z,72.90
2018-03-31T13:45:10.147Z,72.60
2018-03-31T13:47:37.206Z,72.80
2018-03-31T13:50:04.316Z,72.50
2018-03-31T13:52:31.389Z,72.60
2018-03-31T13:54:58.448Z,73.50
2018-03-31T13:57:26.472Z,74.00
2018-03-31T13:59:54.361Z,73.60
2018-03-31T14:02:21.409Z,73.60
2018-03-31T14:04:48.464Z,74.80
2018-03-31T14:07:15.820Z,75.50
2018-03-31T14:09:42.883Z,75.10
2018-03-31T14:12:09.935Z,76.00
2018-03-31T15:12:13.077Z,88.10
2018-03-31T16:12:32.956Z,99.90
2018-03-31T16:15:00.027Z,99.90
2018-03-31T16:17:27.086Z,99.90
2018-03-31T16:33:22.059Z,99.90
2018-03-31T16:35:49.113Z,99.90
2018-03-31T16:38:16.175Z,99.90
2018-03-31T16:40:43.582Z,99.90
2018-03-31T16:43:10.637Z,99.90
2018-03-31T16:45:37.724Z,99.90
2018-03-31T16:48:04.784Z,99.90
2018-03-31T16:50:31.883Z,99.90
2018-03-31T16:52:58.953Z,99.90
2018-03-31T16:55:26.763Z,99.90
2018-03-31T16:57:53.846Z,99.90
2018-03-31T17:00:20.889Z,99.90
2018-03-31T17:02:47.977Z,99.90
2018-03-31T17:05:15.055Z,99.90
2018-03-31T17:07:42.402Z,99.90
2018-03-31T17:10:09.476Z,99.90
2018-03-31T17:12:36.546Z,99.90
2018-03-31T19:16:45.672Z,99.90
2018-03-31T19:19:12.700Z,99.90
2018-03-31T19:21:39.772Z,99.90
2018-03-31T19:24:06.829Z,99.90
2018-03-31T19:26:34.280Z,99.90
2018-03-31T19:29:01.321Z,99.90
2018-03-31T19:31:28.403Z,99.90
2018-03-31T19:33:55.456Z,99.90
2018-03-31T19:36:22.518Z,99.90
2018-03-31T19:38:49.584Z,99.90
2018-03-31T19:41:17.418Z,99.90
2018-03-31T19:43:44.474Z,99.90
2018-03-31T19:46:11.530Z,99.90
2018-03-31T19:48:38.577Z,99.90
2018-03-31T19:51:06.421Z,99.90
2018-03-31T19:53:33.469Z,99.90
2018-03-31T19:56:00.540Z,99.90
2018-03-31T19:58:27.839Z,99.90
2018-03-31T20:00:54.876Z,99.90
2018-03-31T20:03:21.935Z,99.90
2018-03-31T20:05:48.997Z,99.90
2018-03-31T20:08:16.049Z,99.90
2018-03-31T20:10:43.108Z,99.90
2018-03-31T20:18:57.475Z,99.90
2018-03-31T21:13:43.673Z,99.90
2018-03-31T21:22:07.452Z,99.90
2018-03-31T22:14:06.080Z,99.90
2018-03-31T22:19:27.128Z,99.90
2018-03-31T22:21:54.186Z,99.90
2018-03-31T22:24:21.245Z,99.90
2018-03-31T22:26:48.300Z,99.90
2018-03-31T22:29:15.384Z,99.90
2018-03-31T22:31:42.432Z,99.90
2018-03-31T22:34:09.496Z,99.90
2018-03-31T22:36:36.524Z,99.90
2018-03-31T22:39:03.580Z,99.90
2018-03-31T22:41:30.628Z,99.90
2018-03-31T22:43:58.373Z,99.90
2018-03-31T22:46:26.200Z,99.90
2018-03-31T22:48:53.416Z,99.90
2018-03-31T22:51:20.571Z,99.90
2018-03-31T22:53:47.614Z,99.90
2018-03-31T22:56:15.173Z,99.90
2018-03-31T22:58:42.223Z,99.90
2018-03-31T23:01:09.273Z,99.90
2018-03-31T23:03:36.332Z,99.90
2018-03-31T23:06:03.417Z,99.90
2018-03-31T23:08:30.467Z,99.90
2018-03-31T23:10:57.525Z,99.90
2018-03-31T23:22:06.287Z,99.90
2018-03-31T23:24:33.360Z,99.90
2018-03-31T23:27:00.423Z,99.90
2018-03-31T23:29:27.466Z,99.90
2018-03-31T23:31:55.335Z,99.90
2018-03-31T23:34:22.394Z,99.90
2018-03-31T23:36:49.472Z,99.90
2018-03-31T23:39:16.517Z,99.90
2018-03-31T23:41:43.599Z,99.90
2018-03-31T23:44:10.636Z,99.90
2018-03-31T23:46:37.686Z,99.90
2018-03-31T23:49:04.749Z,99.90
2018-03-31T23:51:31.804Z,99.90
2018-03-31T23:53:59.096Z,99.90
2018-03-31T23:56:26.144Z,99.90
2018-03-31T23:58:53.190Z,99.90
